createdAt,value
2022-10-05T12:10:13.664Z,22.94
2022-10-05T12:11:13.565Z,23.50
2022-10-05T12:12:13.549Z,24.02
2022-10-05T12:13:13.540Z,24.34
2022-10-05T12:14:13.524Z,24.35
2022-10-05T12:15:13.509Z,24.22
2022-10-05T12:16:13.535Z,23.90
2022-10-05T12:17:13.475Z,23.28
2022-10-05T12:18:13.467Z,23.69
2022-10-05T12:19:13.446Z,23.85
2022-10-05T12:20:13.492Z,23.88
2022-10-05T12:21:13.414Z,23.36
2022-10-05T12:22:13.408Z,23.38
2022-10-05T12:23:13.378Z,23.66
2022-10-05T12:24:13.362Z,24.08
2022-10-05T12:25:13.357Z,24.09
2022-10-05T12:26:13.346Z,24.28
2022-10-05T12:27:13.318Z,23.85
2022-10-05T12:28:13.385Z,24.30
2022-10-05T12:29:13.293Z,24.68
2022-10-05T12:30:13.295Z,24.96
2022-10-05T12:31:13.332Z,24.87
2022-10-05T12:32:13.257Z,24.34
2022-10-05T12:33:13.242Z,24.32
2022-10-05T12:34:13.243Z,24.32
2022-10-05T12:35:13.214Z,24.57
2022-10-05T12:36:13.202Z,24.43
2022-10-05T12:37:13.187Z,24.35
2022-10-05T12:38:13.166Z,24.35
2022-10-05T12:39:13.151Z,24.30
2022-10-05T12:40:13.179Z,24.27
2022-10-05T12:41:13.133Z,24.40
2022-10-05T12:42:13.122Z,24.42
2022-10-05T12:43:13.098Z,24.18
2022-10-05T12:44:13.101Z,23.50
2022-10-05T12:45:13.082Z,23.39
2022-10-05T12:46:13.109Z,23.12
2022-10-05T12:47:13.056Z,23.42
2022-10-05T12:48:13.045Z,23.73
2022-10-05T12:49:13.019Z,23.91
2022-10-05T12:50:13.128Z,23.94
2022-10-05T12:51:12.996Z,24.10
2022-10-05T12:52:13.003Z,24.15
2022-10-05T12:53:12.971Z,24.20
2022-10-05T12:54:12.965Z,23.79
2022-10-05T12:55:12.948Z,23.57
2022-10-05T12:56:13.150Z,23.51
2022-10-05T12:57:12.924Z,23.55
2022-10-05T12:58:12.935Z,23.68
2022-10-05T12:59:12.900Z,23.63
2022-10-05T13:00:12.932Z,23.66
2022-10-05T13:01:12.893Z,23.73
2022-10-05T13:02:12.935Z,24.06
2022-10-05T13:03:12.852Z,23.88
2022-10-05T13:04:12.857Z,23.73
2022-10-05T13:05:12.829Z,23.61
2022-10-05T13:06:12.972Z,23.43
2022-10-05T13:07:12.813Z,23.32
2022-10-05T13:08:12.806Z,23.50
2022-10-05T13:09:12.780Z,23.68
2022-10-05T13:10:12.874Z,23.40
2022-10-05T13:11:15.163Z,23.55
2022-10-05T13:12:12.752Z,23.69
2022-10-05T13:13:12.734Z,23.75
2022-10-05T13:14:12.725Z,23.98
2022-10-05T13:15:12.710Z,23.90
2022-10-05T13:16:12.864Z,23.93
2022-10-05T13:17:12.698Z,23.95
2022-10-05T13:18:12.675Z,24.31
2022-10-05T13:19:12.665Z,24.22
2022-10-05T13:20:12.711Z,24.35
2022-10-05T13:21:12.643Z,24.43
2022-10-05T13:22:12.658Z,24.55
2022-10-05T13:23:12.619Z,24.78
2022-10-05T13:24:12.614Z,25.05
2022-10-05T13:25:12.598Z,24.83
2022-10-05T13:26:12.893Z,24.58
2022-10-05T13:27:12.584Z,24.67
2022-10-05T13:28:12.614Z,24.58
2022-10-05T13:29:12.560Z,24.58
2022-10-05T13:30:12.634Z,24.58
2022-10-05T13:31:12.594Z,24.30
2022-10-05T13:32:12.516Z,24.30
2022-10-05T13:33:12.504Z,23.97
2022-10-05T13:34:12.515Z,23.58
2022-10-05T13:35:12.493Z,23.51
2022-10-05T13:36:12.615Z,23.43
2022-10-05T13:37:12.466Z,23.50
2022-10-05T13:38:12.448Z,22.80
2022-10-05T13:39:12.448Z,22.95
2022-10-05T13:40:12.443Z,23.12
2022-10-05T13:41:12.414Z,23.28
2022-10-05T13:42:12.411Z,23.58
2022-10-05T13:43:12.391Z,23.70
2022-10-05T13:44:12.381Z,24.06
2022-10-05T13:45:12.387Z,24.37
2022-10-05T13:46:12.758Z,24.76
2022-10-05T13:47:12.357Z,25.14
2022-10-05T13:48:12.337Z,25.36
2022-10-05T13:49:12.336Z,25.35
2022-10-05T13:50:12.325Z,25.51
2022-10-05T13:51:12.600Z,25.39
2022-10-05T13:52:12.309Z,25.70
2022-10-05T13:53:12.284Z,26.10
2022-10-05T13:54:12.272Z,26.62
2022-10-05T13:55:12.266Z,26.88
2022-10-05T13:56:12.251Z,26.77
2022-10-05T13:57:12.256Z,26.70
2022-10-05T13:58:12.258Z,26.81
2022-10-05T13:59:12.234Z,26.99
2022-10-05T14:09:56.314Z,25.82
2022-10-05T14:10:56.274Z,25.70
2022-10-05T14:11:56.256Z,25.33
2022-10-05T14:12:56.253Z,25.87
2022-10-05T14:13:56.245Z,25.54
2022-10-05T14:14:56.233Z,24.98
2022-10-05T14:15:56.230Z,24.93
2022-10-05T14:16:56.327Z,24.91
2022-10-05T14:17:56.203Z,24.53
2022-10-05T14:18:56.198Z,24.31
2022-10-05T14:19:56.175Z,23.97
2022-10-05T14:20:56.172Z,23.85
2022-10-05T14:21:56.177Z,24.31
2022-10-05T14:22:56.149Z,24.37
2022-10-05T14:23:56.134Z,24.58
2022-10-05T14:24:56.130Z,24.93
2022-10-05T14:25:56.137Z,25.05
2022-10-05T14:26:56.106Z,25.54
2022-10-05T14:27:56.144Z,25.85
2022-10-05T14:28:56.086Z,26.09
2022-10-05T14:29:56.077Z,26.60
2022-10-05T14:30:59.044Z,26.58
2022-10-05T14:31:56.109Z,26.73
2022-10-05T14:32:56.055Z,26.95
2022-10-05T14:33:56.062Z,26.95
2022-10-05T14:34:56.040Z,26.06
2022-10-05T14:35:56.023Z,24.88
2022-10-05T14:36:56.017Z,24.21
2022-10-05T14:37:56.016Z,23.78
2022-10-05T14:38:56.007Z,23.36
2022-10-05T14:39:56.000Z,23.00
